BEARDSLEY LAKE (BRD)

Elevation: 3398' · STANISLAUS R basin · Operator: US Bureau of Reclamation

Provisional data, subject to change.
Query executed Sunday at 4:52:31   clock

Select a sensor type for a plot of data.
Note: Reservoir Flows are daily averages.

Earlier

Date STORAGE    RES CHG    OUTFLOW    PPT INC   
 AF   AF   CFS   INCHES  
01/02/2015 30991 -379 396 0.00
01/03/2015 30542 -449 396 0.00
01/04/2015 30071 -471 394 0.00
01/05/2015 29712 -359 398 0.00
01/06/2015 29453 -259 398 0.00
01/07/2015 29076 -377 396 0.00
01/08/2015 28794 -282 399 0.00
01/09/2015 28743 -51 396 0.00
01/10/2015 28552 -191 397 0.00
01/11/2015 28360 -192 398 0.00
01/12/2015 27979 -381 396 0.00
01/13/2015 27760 -219 395 0.00
01/14/2015 27520 -240 393 0.00
01/15/2015 27409 -111 395 0.00
01/16/2015 27298 -111 399 0.00
01/17/2015 26994 -304 395 0.00
01/18/2015 26760 -234 398 0.00
01/19/2015 26535 -225 397 0.00
01/20/2015 26343 -192 397 0.00
01/21/2015 26119 -224 396 0.00
01/22/2015 25942 -177 393 0.00
01/23/2015 25724 -218 393 0.00
01/24/2015 25411 -313 393 0.00
01/25/2015 25014 -397 396 0.00
01/26/2015 24920 -94 394 0.00
01/27/2015 24776 -144 401 0.13
01/28/2015 24596 -180 394 0.00
01/29/2015 24453 -143 395 0.00
01/30/2015 24403 -50 395 0.00
01/31/2015 24117 -- 394 0.00
02/01/2015 -- -- -- --

Later | Latest

Warning! This data is preliminary and subject to revision.

Show BRD Map | Plot BRD Data | 1 Month BRD Data | Real-Time BRD Data | BRD Info